<?xml version='1.0' encoding='UTF-8'?>
<gpx xmlns="http://www.topografix.com/GPX/1/1" creator="www.balnam.be" version="1.1" xmlns:xsi="http://www.w3.org/2001/XMLSchema-instance" xsi:schemaLocation="http://www.topografix.com/GPX/1/1 http://www.topografix.com/GPX/1/1/gpx.xsd">
<trk>
<name>hfmfm1</name>
<cmt>v</cmt>
<desc>Frameries Chemin n°1 </desc>
<link href="https://chemins.be/frameries/chemin/1"/><trkseg>
<trkpt lat="50.397007" lon="3.905828"><time>2026-05-02T17:41:34Z</time></trkpt>
<trkpt lat="50.396210" lon="3.907599"><time>2026-05-02T17:51:34Z</time></trkpt>
</trkseg></trk>
<trk>
<name>hfmfm1</name>
<cmt>s</cmt>
<desc>Frameries Chemin n°1 </desc>
<link href="https://chemins.be/frameries/chemin/1"/><trkseg>
<trkpt lat="50.396210" lon="3.907599"><time>2026-05-02T17:51:34Z</time></trkpt>
<trkpt lat="50.395632" lon="3.908596"><time>2026-05-02T18:01:34Z</time></trkpt>
</trkseg></trk>
<trk>
<name>hfmfm1</name>
<cmt>v</cmt>
<desc>Frameries Chemin n°1 </desc>
<link href="https://chemins.be/frameries/chemin/1"/><trkseg>
<trkpt lat="50.395632" lon="3.908596"><time>2026-05-02T18:01:34Z</time></trkpt>
<trkpt lat="50.394010" lon="3.910120"><time>2026-05-02T18:11:34Z</time></trkpt>
</trkseg>
</trk>
<trk>
<name>hfmfm11</name>
<cmt>v</cmt>
<desc>Frameries Chemin n°11 Rue Joseph Wauters</desc>
<link href="https://chemins.be/frameries/chemin/11"/><trkseg>
<trkpt lat="50.401368" lon="3.901020"><time>2026-05-02T17:41:34Z</time></trkpt>
<trkpt lat="50.400922" lon="3.902298"><time>2026-05-02T17:51:34Z</time></trkpt>
<trkpt lat="50.400179" lon="3.903149"><time>2026-05-02T18:01:34Z</time></trkpt>
<trkpt lat="50.399650" lon="3.903677"><time>2026-05-02T18:11:34Z</time></trkpt>
<trkpt lat="50.399219" lon="3.904018"><time>2026-05-02T18:21:34Z</time></trkpt>
<trkpt lat="50.398192" lon="3.904769"><time>2026-05-02T18:31:34Z</time></trkpt>
<trkpt lat="50.398137" lon="3.904887"><time>2026-05-02T18:41:34Z</time></trkpt>
<trkpt lat="50.397085" lon="3.905716"><time>2026-05-02T18:51:34Z</time></trkpt>
</trkseg>
</trk>
<trk>
<name>hfmfm15</name>
<cmt>r</cmt>
<desc>Frameries Chemin n°15 Rue des Fours à Chaux / Impasse des Fours à Chaux</desc>
<link href="https://chemins.be/frameries/chemin/15"/><trkseg>
<trkpt lat="50.412784" lon="3.926529"><time>2026-05-02T17:41:34Z</time></trkpt>
<trkpt lat="50.412893" lon="3.926164"><time>2026-05-02T17:51:34Z</time></trkpt>
<trkpt lat="50.412733" lon="3.922269"><time>2026-05-02T18:01:34Z</time></trkpt>
<trkpt lat="50.412559" lon="3.919208"><time>2026-05-02T18:11:34Z</time></trkpt>
<trkpt lat="50.412377" lon="3.915739"><time>2026-05-02T18:21:34Z</time></trkpt>
<trkpt lat="50.412292" lon="3.914918"><time>2026-05-02T18:31:34Z</time></trkpt>
<trkpt lat="50.411844" lon="3.913643"><time>2026-05-02T18:41:34Z</time></trkpt>
<trkpt lat="50.411608" lon="3.913053"><time>2026-05-02T18:51:34Z</time></trkpt>
<trkpt lat="50.411575" lon="3.911603"><time>2026-05-02T19:01:34Z</time></trkpt>
<trkpt lat="50.411635" lon="3.909476"><time>2026-05-02T19:11:34Z</time></trkpt>
<trkpt lat="50.410734" lon="3.906303"><time>2026-05-02T19:21:34Z</time></trkpt>
</trkseg></trk>
<trk>
<name>hfmfm15</name>
<cmt>v</cmt>
<desc>Frameries Chemin n°15 Rue des Fours à Chaux / Impasse des Fours à Chaux</desc>
<link href="https://chemins.be/frameries/chemin/15"/><trkseg>
<trkpt lat="50.410734" lon="3.906303"><time>2026-05-02T19:21:34Z</time></trkpt>
<trkpt lat="50.410607" lon="3.905854"><time>2026-05-02T19:31:34Z</time></trkpt>
<trkpt lat="50.410270" lon="3.905130"><time>2026-05-02T19:41:34Z</time></trkpt>
</trkseg></trk>
<trk>
<name>hfmfm15</name>
<cmt>q</cmt>
<desc>Frameries Chemin n°15 Rue des Fours à Chaux / Impasse des Fours à Chaux</desc>
<link href="https://chemins.be/frameries/chemin/15"/><trkseg>
<trkpt lat="50.410270" lon="3.905130"><time>2026-05-02T19:41:34Z</time></trkpt>
<trkpt lat="50.410112" lon="3.904736"><time>2026-05-02T19:51:34Z</time></trkpt>
</trkseg></trk>
<trk>
<name>hfmfm15</name>
<cmt>r</cmt>
<desc>Frameries Chemin n°15 Rue des Fours à Chaux / Impasse des Fours à Chaux</desc>
<link href="https://chemins.be/frameries/chemin/15"/><trkseg>
<trkpt lat="50.410112" lon="3.904736"><time>2026-05-02T19:51:34Z</time></trkpt>
<trkpt lat="50.409743" lon="3.903743"><time>2026-05-02T20:01:34Z</time></trkpt>
</trkseg>
</trk>
<trk>
<name>hfmfm16</name>
<cmt>v</cmt>
<desc>Frameries Sentier n°16 </desc>
<link href="https://chemins.be/frameries/sentier/16"/><trkseg>
<trkpt lat="50.399842" lon="3.893781"><time>2026-05-02T17:41:34Z</time></trkpt>
<trkpt lat="50.398912" lon="3.894131"><time>2026-05-02T17:51:34Z</time></trkpt>
<trkpt lat="50.398199" lon="3.894203"><time>2026-05-02T18:01:34Z</time></trkpt>
</trkseg></trk>
<trk>
<name>hfmfm16</name>
<cmt>q</cmt>
<desc>Frameries Sentier n°16 </desc>
<link href="https://chemins.be/frameries/sentier/16"/><trkseg>
<trkpt lat="50.398199" lon="3.894203"><time>2026-05-02T18:01:34Z</time></trkpt>
<trkpt lat="50.395964" lon="3.894198"><time>2026-05-02T18:11:34Z</time></trkpt>
<trkpt lat="50.393197" lon="3.892629"><time>2026-05-02T18:21:34Z</time></trkpt>
</trkseg>
</trk>
<trk>
<name>hfmfm17</name>
<cmt>r</cmt>
<desc>Frameries Sentier n°17 Rue César Depaepe / Rue Ferrer</desc>
<link href="https://chemins.be/frameries/sentier/17"/><trkseg>
<trkpt lat="50.407292" lon="3.898022"><time>2026-05-02T17:41:34Z</time></trkpt>
<trkpt lat="50.405296" lon="3.900880"><time>2026-05-02T17:51:34Z</time></trkpt>
<trkpt lat="50.405142" lon="3.901773"><time>2026-05-02T18:01:34Z</time></trkpt>
</trkseg></trk>
<trk>
<name>hfmfm17</name>
<cmt>v</cmt>
<desc>Frameries Sentier n°17 Rue César Depaepe / Rue Ferrer</desc>
<link href="https://chemins.be/frameries/sentier/17"/><trkseg>
<trkpt lat="50.405142" lon="3.901773"><time>2026-05-02T18:01:34Z</time></trkpt>
<trkpt lat="50.404693" lon="3.901781"><time>2026-05-02T18:11:34Z</time></trkpt>
<trkpt lat="50.404375" lon="3.901936"><time>2026-05-02T18:21:34Z</time></trkpt>
<trkpt lat="50.403924" lon="3.902225"><time>2026-05-02T18:31:34Z</time></trkpt>
<trkpt lat="50.402964" lon="3.902485"><time>2026-05-02T18:41:34Z</time></trkpt>
<trkpt lat="50.401324" lon="3.902675"><time>2026-05-02T18:51:34Z</time></trkpt>
<trkpt lat="50.400147" lon="3.903190"><time>2026-05-02T19:01:34Z</time></trkpt>
<trkpt lat="50.399654" lon="3.903670"><time>2026-05-02T19:11:34Z</time></trkpt>
<trkpt lat="50.398188" lon="3.904790"><time>2026-05-02T19:21:34Z</time></trkpt>
<trkpt lat="50.398125" lon="3.904889"><time>2026-05-02T19:31:34Z</time></trkpt>
<trkpt lat="50.397076" lon="3.905778"><time>2026-05-02T19:41:34Z</time></trkpt>
<trkpt lat="50.396246" lon="3.907548"><time>2026-05-02T19:51:34Z</time></trkpt>
</trkseg></trk>
<trk>
<name>hfmfm17</name>
<cmt>s</cmt>
<desc>Frameries Sentier n°17 Rue César Depaepe / Rue Ferrer</desc>
<link href="https://chemins.be/frameries/sentier/17"/><trkseg>
<trkpt lat="50.396246" lon="3.907548"><time>2026-05-02T19:51:34Z</time></trkpt>
<trkpt lat="50.395663" lon="3.908639"><time>2026-05-02T20:01:34Z</time></trkpt>
<trkpt lat="50.394230" lon="3.912433"><time>2026-05-02T20:11:34Z</time></trkpt>
</trkseg>
</trk>
<trk>
<name>hfmfm19</name>
<cmt>q</cmt>
<desc>Frameries Sentier n°19 </desc>
<link href="https://chemins.be/frameries/sentier/19"/><trkseg>
<trkpt lat="50.408728" lon="3.897574"><time>2026-05-02T17:41:34Z</time></trkpt>
<trkpt lat="50.408928" lon="3.898222"><time>2026-05-02T17:51:34Z</time></trkpt>
</trkseg>
</trk>
<trk>
<name>hfmfm2</name>
<cmt>q</cmt>
<desc>Frameries Chemin n°2 Chemin de Binche / Rue de Binche - Chemin de Binche</desc>
<link href="https://chemins.be/frameries/chemin/2"/><trkseg>
<trkpt lat="50.424313" lon="3.899192"><time>2026-05-02T17:41:34Z</time></trkpt>
<trkpt lat="50.422496" lon="3.903564"><time>2026-05-02T17:51:34Z</time></trkpt>
</trkseg></trk>
<trk>
<name>hfmfm2</name>
<cmt>r</cmt>
<desc>Frameries Chemin n°2 Chemin de Binche / Rue de Binche - Chemin de Binche</desc>
<link href="https://chemins.be/frameries/chemin/2"/><trkseg>
<trkpt lat="50.422496" lon="3.903564"><time>2026-05-02T17:51:34Z</time></trkpt>
<trkpt lat="50.422099" lon="3.904607"><time>2026-05-02T18:01:34Z</time></trkpt>
<trkpt lat="50.421230" lon="3.907893"><time>2026-05-02T18:11:34Z</time></trkpt>
</trkseg></trk>
<trk>
<name>hfmfm2</name>
<cmt>v</cmt>
<desc>Frameries Chemin n°2 Chemin de Binche / Rue de Binche - Chemin de Binche</desc>
<link href="https://chemins.be/frameries/chemin/2"/><trkseg>
<trkpt lat="50.421230" lon="3.907893"><time>2026-05-02T18:11:34Z</time></trkpt>
<trkpt lat="50.420958" lon="3.908606"><time>2026-05-02T18:21:34Z</time></trkpt>
<trkpt lat="50.420432" lon="3.909849"><time>2026-05-02T18:31:34Z</time></trkpt>
<trkpt lat="50.420129" lon="3.910471"><time>2026-05-02T18:41:34Z</time></trkpt>
<trkpt lat="50.419897" lon="3.910868"><time>2026-05-02T18:51:34Z</time></trkpt>
<trkpt lat="50.419602" lon="3.911490"><time>2026-05-02T19:01:34Z</time></trkpt>
<trkpt lat="50.418498" lon="3.914061"><time>2026-05-02T19:11:34Z</time></trkpt>
</trkseg></trk>
<trk>
<name>hfmfm2</name>
<cmt>r</cmt>
<desc>Frameries Chemin n°2 Chemin de Binche / Rue de Binche - Chemin de Binche</desc>
<link href="https://chemins.be/frameries/chemin/2"/><trkseg>
<trkpt lat="50.418498" lon="3.914061"><time>2026-05-02T19:11:34Z</time></trkpt>
<trkpt lat="50.417294" lon="3.916690"><time>2026-05-02T19:21:34Z</time></trkpt>
<trkpt lat="50.417116" lon="3.917128"><time>2026-05-02T19:31:34Z</time></trkpt>
<trkpt lat="50.416831" lon="3.917876"><time>2026-05-02T19:41:34Z</time></trkpt>
<trkpt lat="50.416609" lon="3.918596"><time>2026-05-02T19:51:34Z</time></trkpt>
<trkpt lat="50.416483" lon="3.919099"><time>2026-05-02T20:01:34Z</time></trkpt>
<trkpt lat="50.416343" lon="3.919598"><time>2026-05-02T20:11:34Z</time></trkpt>
<trkpt lat="50.416202" lon="3.920260"><time>2026-05-02T20:21:34Z</time></trkpt>
<trkpt lat="50.415848" lon="3.921628"><time>2026-05-02T20:31:34Z</time></trkpt>
</trkseg></trk>
<trk>
<name>hfmfm2</name>
<cmt>s</cmt>
<desc>Frameries Chemin n°2 Chemin de Binche / Rue de Binche - Chemin de Binche</desc>
<link href="https://chemins.be/frameries/chemin/2"/><trkseg>
<trkpt lat="50.415848" lon="3.921628"><time>2026-05-02T20:31:34Z</time></trkpt>
<trkpt lat="50.414096" lon="3.926710"><time>2026-05-02T20:41:34Z</time></trkpt>
<trkpt lat="50.413988" lon="3.927301"><time>2026-05-02T20:51:34Z</time></trkpt>
</trkseg>
</trk>
<trk>
<name>hfmfm20</name>
<cmt>q</cmt>
<desc>Frameries Sentier n°20 </desc>
<link href="https://chemins.be/frameries/sentier/20"/><trkseg>
<trkpt lat="50.414554" lon="3.890271"><time>2026-05-02T17:41:34Z</time></trkpt>
<trkpt lat="50.415490" lon="3.894562"><time>2026-05-02T17:51:34Z</time></trkpt>
<trkpt lat="50.415856" lon="3.894880"><time>2026-05-02T18:01:34Z</time></trkpt>
<trkpt lat="50.418022" lon="3.896905"><time>2026-05-02T18:11:34Z</time></trkpt>
<trkpt lat="50.418372" lon="3.897772"><time>2026-05-02T18:21:34Z</time></trkpt>
<trkpt lat="50.420282" lon="3.899596"><time>2026-05-02T18:31:34Z</time></trkpt>
<trkpt lat="50.423091" lon="3.902278"><time>2026-05-02T18:41:34Z</time></trkpt>
</trkseg>
</trk>
<trk>
<name>hfmfm21</name>
<cmt>r</cmt>
<desc>Frameries Sentier n°21 Rue de Lambrechies</desc>
<link href="https://chemins.be/frameries/sentier/21"/><trkseg>
<trkpt lat="50.411177" lon="3.888185"><time>2026-05-02T17:41:34Z</time></trkpt>
<trkpt lat="50.411004" lon="3.886245"><time>2026-05-02T17:51:34Z</time></trkpt>
<trkpt lat="50.411089" lon="3.884750"><time>2026-05-02T18:01:34Z</time></trkpt>
</trkseg>
</trk>
<trk>
<name>hfmfm22</name>
<cmt>q</cmt>
<desc>Frameries Sentier n°22 </desc>
<link href="https://chemins.be/frameries/sentier/22"/><trkseg>
<trkpt lat="50.418505" lon="3.884472"><time>2026-05-02T17:41:34Z</time></trkpt>
<trkpt lat="50.413665" lon="3.884643"><time>2026-05-02T17:51:34Z</time></trkpt>
<trkpt lat="50.411053" lon="3.884193"><time>2026-05-02T18:01:34Z</time></trkpt>
</trkseg>
</trk>
<trk>
<name>hfmfm23</name>
<cmt>r</cmt>
<desc>Frameries Sentier n°23 Rue Joseph Bidez</desc>
<link href="https://chemins.be/frameries/sentier/23"/><trkseg>
<trkpt lat="50.412360" lon="3.892137"><time>2026-05-02T17:41:34Z</time></trkpt>
<trkpt lat="50.410829" lon="3.890920"><time>2026-05-02T17:51:34Z</time></trkpt>
</trkseg></trk>
<trk>
<name>hfmfm23</name>
<cmt>q</cmt>
<desc>Frameries Sentier n°23 Rue Joseph Bidez</desc>
<link href="https://chemins.be/frameries/sentier/23"/><trkseg>
<trkpt lat="50.410829" lon="3.890920"><time>2026-05-02T17:51:34Z</time></trkpt>
<trkpt lat="50.409707" lon="3.890083"><time>2026-05-02T18:01:34Z</time></trkpt>
<trkpt lat="50.408671" lon="3.888592"><time>2026-05-02T18:11:34Z</time></trkpt>
<trkpt lat="50.408723" lon="3.888189"><time>2026-05-02T18:21:34Z</time></trkpt>
</trkseg>
</trk>
<trk>
<name>hfmfm25</name>
<cmt>q</cmt>
<desc>Frameries Sentier n°25 </desc>
<link href="https://chemins.be/frameries/sentier/25"/><trkseg>
<trkpt lat="50.400738" lon="3.894958"><time>2026-05-02T17:41:34Z</time></trkpt>
<trkpt lat="50.400169" lon="3.896263"><time>2026-05-02T17:51:34Z</time></trkpt>
<trkpt lat="50.400230" lon="3.897576"><time>2026-05-02T18:01:34Z</time></trkpt>
<trkpt lat="50.400738" lon="3.898220"><time>2026-05-02T18:11:34Z</time></trkpt>
<trkpt lat="50.399721" lon="3.899567"><time>2026-05-02T18:21:34Z</time></trkpt>
<trkpt lat="50.399896" lon="3.900125"><time>2026-05-02T18:31:34Z</time></trkpt>
<trkpt lat="50.399239" lon="3.900915"><time>2026-05-02T18:41:34Z</time></trkpt>
</trkseg></trk>
<trk>
<name>hfmfm25</name>
<cmt>d</cmt>
<desc>Frameries Sentier n°25 </desc>
<link href="https://chemins.be/frameries/sentier/25"/><trkseg>
<trkpt lat="50.399239" lon="3.900915"><time>2026-05-02T18:41:34Z</time></trkpt>
<trkpt lat="50.399369" lon="3.901205"><time>2026-05-02T18:51:34Z</time></trkpt>
<trkpt lat="50.399424" lon="3.901500"><time>2026-05-02T19:01:34Z</time></trkpt>
<trkpt lat="50.399524" lon="3.901738"><time>2026-05-02T19:11:34Z</time></trkpt>
<trkpt lat="50.399533" lon="3.901851"><time>2026-05-02T19:21:34Z</time></trkpt>
<trkpt lat="50.399683" lon="3.903425"><time>2026-05-02T19:31:34Z</time></trkpt>
<trkpt lat="50.399639" lon="3.903664"><time>2026-05-02T19:41:34Z</time></trkpt>
</trkseg>
</trk>
<trk>
<name>hfmfm26</name>
<cmt>r</cmt>
<desc>Frameries Sentier n°26 </desc>
<link href="https://chemins.be/frameries/sentier/26"/><trkseg>
<trkpt lat="50.411612" lon="3.893135"><time>2026-05-02T17:41:34Z</time></trkpt>
<trkpt lat="50.411905" lon="3.893463"><time>2026-05-02T17:51:34Z</time></trkpt>
</trkseg>
</trk>
<trk>
<name>hfmfm29</name>
<cmt>r</cmt>
<desc>Frameries Sentier n°29 </desc>
<link href="https://chemins.be/frameries/sentier/29"/><trkseg>
<trkpt lat="50.411564" lon="3.894521"><time>2026-05-02T17:41:34Z</time></trkpt>
<trkpt lat="50.411559" lon="3.893778"><time>2026-05-02T17:51:34Z</time></trkpt>
</trkseg></trk>
<trk>
<name>hfmfm29</name>
<cmt>v</cmt>
<desc>Frameries Sentier n°29 </desc>
<link href="https://chemins.be/frameries/sentier/29"/><trkseg>
<trkpt lat="50.411559" lon="3.893778"><time>2026-05-02T17:51:34Z</time></trkpt>
<trkpt lat="50.411582" lon="3.893162"><time>2026-05-02T18:01:34Z</time></trkpt>
</trkseg>
</trk>
<trk>
<name>hfmfm3</name>
<cmt>v</cmt>
<desc>Frameries Chemin n°3 </desc>
<link href="https://chemins.be/frameries/chemin/3"/><trkseg>
<trkpt lat="50.414563" lon="3.910244"><time>2026-05-02T17:41:34Z</time></trkpt>
<trkpt lat="50.416753" lon="3.912294"><time>2026-05-02T17:51:34Z</time></trkpt>
</trkseg></trk>
<trk>
<name>hfmfm3</name>
<cmt>s</cmt>
<desc>Frameries Chemin n°3 </desc>
<link href="https://chemins.be/frameries/chemin/3"/><trkseg>
<trkpt lat="50.416753" lon="3.912294"><time>2026-05-02T17:51:34Z</time></trkpt>
<trkpt lat="50.417613" lon="3.913099"><time>2026-05-02T18:01:34Z</time></trkpt>
<trkpt lat="50.418579" lon="3.914159"><time>2026-05-02T18:11:34Z</time></trkpt>
</trkseg>
</trk>
<trk>
<name>hfmfm30</name>
<cmt>q</cmt>
<desc>Frameries Sentier n°30 </desc>
<link href="https://chemins.be/frameries/sentier/30"/><trkseg>
<trkpt lat="50.412381" lon="3.892078"><time>2026-05-02T17:41:34Z</time></trkpt>
<trkpt lat="50.411738" lon="3.892872"><time>2026-05-02T17:51:34Z</time></trkpt>
<trkpt lat="50.411620" lon="3.893111"><time>2026-05-02T18:01:34Z</time></trkpt>
</trkseg>
</trk>
<trk>
<name>hfmfm37</name>
<cmt>b</cmt>
<desc>Frameries Chemin n°37 </desc>
<link href="https://chemins.be/frameries/chemin/37"/><trkseg>
<trkpt lat="50.408591" lon="3.894080"><time>2026-05-02T17:41:34Z</time></trkpt>
<trkpt lat="50.408706" lon="3.893530"><time>2026-05-02T17:51:34Z</time></trkpt>
</trkseg></trk>
<trk>
<name>hfmfm37</name>
<cmt>s</cmt>
<desc>Frameries Chemin n°37 </desc>
<link href="https://chemins.be/frameries/chemin/37"/><trkseg>
<trkpt lat="50.408706" lon="3.893530"><time>2026-05-02T17:51:34Z</time></trkpt>
<trkpt lat="50.408794" lon="3.893136"><time>2026-05-02T18:01:34Z</time></trkpt>
</trkseg>
</trk>
<trk>
<name>hfmfm38</name>
<cmt>r</cmt>
<desc>Frameries Sentier n°38 </desc>
<link href="https://chemins.be/frameries/sentier/38"/><trkseg>
<trkpt lat="50.407795" lon="3.897846"><time>2026-05-02T17:41:34Z</time></trkpt>
<trkpt lat="50.407987" lon="3.897425"><time>2026-05-02T17:51:34Z</time></trkpt>
</trkseg>
</trk>
<trk>
<name>hfmfm39</name>
<cmt>r</cmt>
<desc>Frameries Chemin n°39 </desc>
<link href="https://chemins.be/frameries/chemin/39"/><trkseg>
<trkpt lat="50.414168" lon="3.888845"><time>2026-05-02T17:41:34Z</time></trkpt>
<trkpt lat="50.415209" lon="3.888958"><time>2026-05-02T17:51:34Z</time></trkpt>
<trkpt lat="50.415351" lon="3.888801"><time>2026-05-02T18:01:34Z</time></trkpt>
</trkseg></trk>
<trk>
<name>hfmfm39</name>
<cmt>v</cmt>
<desc>Frameries Chemin n°39 </desc>
<link href="https://chemins.be/frameries/chemin/39"/><trkseg>
<trkpt lat="50.415351" lon="3.888801"><time>2026-05-02T18:01:34Z</time></trkpt>
<trkpt lat="50.415727" lon="3.889198"><time>2026-05-02T18:11:34Z</time></trkpt>
<trkpt lat="50.418038" lon="3.892020"><time>2026-05-02T18:21:34Z</time></trkpt>
</trkseg></trk>
<trk>
<name>hfmfm39</name>
<cmt>d</cmt>
<desc>Frameries Chemin n°39 </desc>
<link href="https://chemins.be/frameries/chemin/39"/><trkseg>
<trkpt lat="50.418038" lon="3.892020"><time>2026-05-02T18:21:34Z</time></trkpt>
<trkpt lat="50.418832" lon="3.892990"><time>2026-05-02T18:31:34Z</time></trkpt>
</trkseg></trk>
<trk>
<name>hfmfm39</name>
<cmt>v</cmt>
<desc>Frameries Chemin n°39 </desc>
<link href="https://chemins.be/frameries/chemin/39"/><trkseg>
<trkpt lat="50.418832" lon="3.892990"><time>2026-05-02T18:31:34Z</time></trkpt>
<trkpt lat="50.419291" lon="3.893549"><time>2026-05-02T18:41:34Z</time></trkpt>
</trkseg>
</trk>
<trk>
<name>hfmfm40</name>
<cmt>r</cmt>
<desc>Frameries Chemin n°40 Rue des Martyrs</desc>
<link href="https://chemins.be/frameries/chemin/40"/><trkseg>
<trkpt lat="50.406044" lon="3.889493"><time>2026-05-02T17:41:34Z</time></trkpt>
<trkpt lat="50.406342" lon="3.889737"><time>2026-05-02T17:51:34Z</time></trkpt>
<trkpt lat="50.406826" lon="3.890836"><time>2026-05-02T18:01:34Z</time></trkpt>
<trkpt lat="50.407470" lon="3.891218"><time>2026-05-02T18:11:34Z</time></trkpt>
<trkpt lat="50.407886" lon="3.891463"><time>2026-05-02T18:21:34Z</time></trkpt>
</trkseg>
</trk>
<trk>
<name>hfmfm41</name>
<cmt>v</cmt>
<desc>Frameries Sentier n°41 Rue Brigade Piron / Rue Jean Volders</desc>
<link href="https://chemins.be/frameries/sentier/41"/><trkseg>
<trkpt lat="50.395305" lon="3.890176"><time>2026-05-02T17:41:34Z</time></trkpt>
<trkpt lat="50.395386" lon="3.890176"><time>2026-05-02T17:51:34Z</time></trkpt>
<trkpt lat="50.395764" lon="3.890369"><time>2026-05-02T18:01:34Z</time></trkpt>
<trkpt lat="50.396908" lon="3.890709"><time>2026-05-02T18:11:34Z</time></trkpt>
<trkpt lat="50.397277" lon="3.890902"><time>2026-05-02T18:21:34Z</time></trkpt>
<trkpt lat="50.397958" lon="3.891566"><time>2026-05-02T18:31:34Z</time></trkpt>
<trkpt lat="50.399758" lon="3.893591"><time>2026-05-02T18:41:34Z</time></trkpt>
</trkseg></trk>
<trk>
<name>hfmfm41</name>
<cmt>r</cmt>
<desc>Frameries Sentier n°41 Rue Brigade Piron / Rue Jean Volders</desc>
<link href="https://chemins.be/frameries/sentier/41"/><trkseg>
<trkpt lat="50.399758" lon="3.893591"><time>2026-05-02T18:41:34Z</time></trkpt>
<trkpt lat="50.400793" lon="3.894859"><time>2026-05-02T18:51:34Z</time></trkpt>
</trkseg></trk>
<trk>
<name>hfmfm41</name>
<cmt>q</cmt>
<desc>Frameries Sentier n°41 Rue Brigade Piron / Rue Jean Volders</desc>
<link href="https://chemins.be/frameries/sentier/41"/><trkseg>
<trkpt lat="50.400793" lon="3.894859"><time>2026-05-02T18:51:34Z</time></trkpt>
<trkpt lat="50.404039" lon="3.894675"><time>2026-05-02T19:01:34Z</time></trkpt>
</trkseg></trk>
<trk>
<name>hfmfm41</name>
<cmt>r</cmt>
<desc>Frameries Sentier n°41 Rue Brigade Piron / Rue Jean Volders</desc>
<link href="https://chemins.be/frameries/sentier/41"/><trkseg>
<trkpt lat="50.404039" lon="3.894675"><time>2026-05-02T19:01:34Z</time></trkpt>
<trkpt lat="50.404654" lon="3.894696"><time>2026-05-02T19:11:34Z</time></trkpt>
</trkseg></trk>
<trk>
<name>hfmfm41</name>
<cmt>q</cmt>
<desc>Frameries Sentier n°41 Rue Brigade Piron / Rue Jean Volders</desc>
<link href="https://chemins.be/frameries/sentier/41"/><trkseg>
<trkpt lat="50.404654" lon="3.894696"><time>2026-05-02T19:11:34Z</time></trkpt>
<trkpt lat="50.406044" lon="3.894779"><time>2026-05-02T19:21:34Z</time></trkpt>
<trkpt lat="50.406349" lon="3.895104"><time>2026-05-02T19:31:34Z</time></trkpt>
</trkseg>
</trk>
<trk>
<name>hfmfm42</name>
<cmt>r</cmt>
<desc>Frameries Sentier n°42 Rue Émile Vandervelde / Rue des Mineurs / Rue de la Maladerie</desc>
<link href="https://chemins.be/frameries/sentier/42"/><trkseg>
<trkpt lat="50.404037" lon="3.894728"><time>2026-05-02T17:41:34Z</time></trkpt>
<trkpt lat="50.404286" lon="3.895368"><time>2026-05-02T17:51:34Z</time></trkpt>
<trkpt lat="50.405334" lon="3.896651"><time>2026-05-02T18:01:34Z</time></trkpt>
<trkpt lat="50.405394" lon="3.896612"><time>2026-05-02T18:11:34Z</time></trkpt>
</trkseg></trk>
<trk>
<name>hfmfm42</name>
<cmt>v</cmt>
<desc>Frameries Sentier n°42 Rue Émile Vandervelde / Rue des Mineurs / Rue de la Maladerie</desc>
<link href="https://chemins.be/frameries/sentier/42"/><trkseg>
<trkpt lat="50.405394" lon="3.896612"><time>2026-05-02T18:11:34Z</time></trkpt>
<trkpt lat="50.405676" lon="3.897097"><time>2026-05-02T18:21:34Z</time></trkpt>
<trkpt lat="50.405707" lon="3.897105"><time>2026-05-02T18:31:34Z</time></trkpt>
</trkseg></trk>
<trk>
<name>hfmfm42</name>
<cmt>q</cmt>
<desc>Frameries Sentier n°42 Rue Émile Vandervelde / Rue des Mineurs / Rue de la Maladerie</desc>
<link href="https://chemins.be/frameries/sentier/42"/><trkseg>
<trkpt lat="50.405707" lon="3.897105"><time>2026-05-02T18:31:34Z</time></trkpt>
<trkpt lat="50.405771" lon="3.897296"><time>2026-05-02T18:41:34Z</time></trkpt>
</trkseg></trk>
<trk>
<name>hfmfm42</name>
<cmt>r</cmt>
<desc>Frameries Sentier n°42 Rue Émile Vandervelde / Rue des Mineurs / Rue de la Maladerie</desc>
<link href="https://chemins.be/frameries/sentier/42"/><trkseg>
<trkpt lat="50.405771" lon="3.897296"><time>2026-05-02T18:41:34Z</time></trkpt>
<trkpt lat="50.406507" lon="3.899122"><time>2026-05-02T18:51:34Z</time></trkpt>
<trkpt lat="50.406690" lon="3.899476"><time>2026-05-02T19:01:34Z</time></trkpt>
</trkseg>
</trk>
<trk>
<name>hfmfm44</name>
<cmt>r</cmt>
<desc>Frameries Sentier n°44 Rue du Millénaire</desc>
<link href="https://chemins.be/frameries/sentier/44"/><trkseg>
<trkpt lat="50.407456" lon="3.901968"><time>2026-05-02T17:41:34Z</time></trkpt>
<trkpt lat="50.407757" lon="3.902552"><time>2026-05-02T17:51:34Z</time></trkpt>
<trkpt lat="50.407850" lon="3.903114"><time>2026-05-02T18:01:34Z</time></trkpt>
</trkseg></trk>
<trk>
<name>hfmfm44</name>
<cmt>q</cmt>
<desc>Frameries Sentier n°44 Rue du Millénaire</desc>
<link href="https://chemins.be/frameries/sentier/44"/><trkseg>
<trkpt lat="50.407850" lon="3.903114"><time>2026-05-02T18:01:34Z</time></trkpt>
<trkpt lat="50.408619" lon="3.906358"><time>2026-05-02T18:11:34Z</time></trkpt>
</trkseg>
</trk>
<trk>
<name>hfmfm45</name>
<cmt>v</cmt>
<desc>Frameries Sentier n°45 Rue des Écluses</desc>
<link href="https://chemins.be/frameries/sentier/45"/><trkseg>
<trkpt lat="50.409814" lon="3.902819"><time>2026-05-02T17:41:34Z</time></trkpt>
<trkpt lat="50.409166" lon="3.903525"><time>2026-05-02T17:51:34Z</time></trkpt>
</trkseg>
</trk>
<trk>
<name>hfmfm46</name>
<cmt>v</cmt>
<desc>Frameries Sentier n°46 </desc>
<link href="https://chemins.be/frameries/sentier/46"/><trkseg>
<trkpt lat="50.409408" lon="3.901943"><time>2026-05-02T17:41:34Z</time></trkpt>
<trkpt lat="50.409013" lon="3.902387"><time>2026-05-02T17:51:34Z</time></trkpt>
<trkpt lat="50.408769" lon="3.902662"><time>2026-05-02T18:01:34Z</time></trkpt>
</trkseg>
</trk>
<trk>
<name>hfmfm47</name>
<cmt>v</cmt>
<desc>Frameries Sentier n°47 Sentier communal n°47</desc>
<link href="https://chemins.be/frameries/sentier/47"/><trkseg>
<trkpt lat="50.409411" lon="3.903295"><time>2026-05-02T17:41:34Z</time></trkpt>
<trkpt lat="50.409131" lon="3.902659"><time>2026-05-02T17:51:34Z</time></trkpt>
<trkpt lat="50.409025" lon="3.902418"><time>2026-05-02T18:01:34Z</time></trkpt>
</trkseg>
</trk>
<trk>
<name>hfmfm49</name>
<cmt>q</cmt>
<desc>Frameries Chemin n°49 </desc>
<link href="https://chemins.be/frameries/chemin/49"/><trkseg>
<trkpt lat="50.416085" lon="3.920765"><time>2026-05-02T17:41:34Z</time></trkpt>
<trkpt lat="50.412852" lon="3.922246"><time>2026-05-02T17:51:34Z</time></trkpt>
</trkseg></trk>
<trk>
<name>hfmfm49</name>
<cmt>s</cmt>
<desc>Frameries Chemin n°49 </desc>
<link href="https://chemins.be/frameries/chemin/49"/><trkseg>
<trkpt lat="50.412852" lon="3.922246"><time>2026-05-02T17:51:34Z</time></trkpt>
<trkpt lat="50.410315" lon="3.923815"><time>2026-05-02T18:01:34Z</time></trkpt>
</trkseg>
</trk>
<trk>
<name>hfmfm50</name>
<cmt>q</cmt>
<desc>Frameries Chemin n°50 Rue du Bois Bourdon</desc>
<link href="https://chemins.be/frameries/chemin/50"/><trkseg>
<trkpt lat="50.396709" lon="3.913316"><time>2026-05-02T17:41:34Z</time></trkpt>
<trkpt lat="50.398737" lon="3.911205"><time>2026-05-02T17:51:34Z</time></trkpt>
<trkpt lat="50.399767" lon="3.910545"><time>2026-05-02T18:01:34Z</time></trkpt>
</trkseg>
</trk>
<trk>
<name>hfmfm54</name>
<cmt>v</cmt>
<desc>Frameries Chemin n°54 </desc>
<link href="https://chemins.be/frameries/chemin/54"/><trkseg>
<trkpt lat="50.410068" lon="3.894713"><time>2026-05-02T17:41:34Z</time></trkpt>
<trkpt lat="50.410487" lon="3.893681"><time>2026-05-02T17:51:34Z</time></trkpt>
</trkseg>
</trk>
<trk>
<name>hfmfm6</name>
<cmt>r</cmt>
<desc>Frameries Chemin n°6 Rue des Prés / Rue du Temple</desc>
<link href="https://chemins.be/frameries/chemin/6"/><trkseg>
<trkpt lat="50.395866" lon="3.902853"><time>2026-05-02T17:41:34Z</time></trkpt>
<trkpt lat="50.394729" lon="3.900030"><time>2026-05-02T17:51:34Z</time></trkpt>
</trkseg></trk>
<trk>
<name>hfmfm6</name>
<cmt>v</cmt>
<desc>Frameries Chemin n°6 Rue des Prés / Rue du Temple</desc>
<link href="https://chemins.be/frameries/chemin/6"/><trkseg>
<trkpt lat="50.394729" lon="3.900030"><time>2026-05-02T17:51:34Z</time></trkpt>
<trkpt lat="50.393747" lon="3.898349"><time>2026-05-02T18:01:34Z</time></trkpt>
<trkpt lat="50.393156" lon="3.896653"><time>2026-05-02T18:11:34Z</time></trkpt>
<trkpt lat="50.392132" lon="3.894723"><time>2026-05-02T18:21:34Z</time></trkpt>
</trkseg>
</trk>
<trk>
<name>hfmfm7</name>
<cmt>q</cmt>
<desc>Frameries Chemin n°7 </desc>
<link href="https://chemins.be/frameries/chemin/7"/><trkseg>
<trkpt lat="50.408304" lon="3.888152"><time>2026-05-02T17:41:34Z</time></trkpt>
<trkpt lat="50.408020" lon="3.889662"><time>2026-05-02T17:51:34Z</time></trkpt>
<trkpt lat="50.407888" lon="3.891508"><time>2026-05-02T18:01:34Z</time></trkpt>
<trkpt lat="50.407774" lon="3.892452"><time>2026-05-02T18:11:34Z</time></trkpt>
<trkpt lat="50.407292" lon="3.893671"><time>2026-05-02T18:21:34Z</time></trkpt>
</trkseg>
</trk>
<trk>
<name>hfmfmi1</name>
<cmt>v</cmt>
<desc>Frameries Sentier n°i1 </desc>
<link href="https://chemins.be/frameries/sentier/i1"/><trkseg>
<trkpt lat="50.399554" lon="3.913863"><time>2026-05-02T17:41:34Z</time></trkpt>
<trkpt lat="50.399867" lon="3.913578"><time>2026-05-02T17:51:34Z</time></trkpt>
<trkpt lat="50.399996" lon="3.914168"><time>2026-05-02T18:01:34Z</time></trkpt>
<trkpt lat="50.400014" lon="3.914280"><time>2026-05-02T18:11:34Z</time></trkpt>
<trkpt lat="50.400050" lon="3.914336"><time>2026-05-02T18:21:34Z</time></trkpt>
<trkpt lat="50.400113" lon="3.914448"><time>2026-05-02T18:31:34Z</time></trkpt>
<trkpt lat="50.400141" lon="3.914532"><time>2026-05-02T18:41:34Z</time></trkpt>
<trkpt lat="50.400151" lon="3.914743"><time>2026-05-02T18:51:34Z</time></trkpt>
<trkpt lat="50.399810" lon="3.915056"><time>2026-05-02T19:01:34Z</time></trkpt>
</trkseg>
</trk>
<trk>
<name>hfmfmi10</name>
<cmt>v</cmt>
<desc>Frameries Chemin n°i10 </desc>
<link href="https://chemins.be/frameries/chemin/i10"/><trkseg>
<trkpt lat="50.405094" lon="3.902558"><time>2026-05-02T17:41:34Z</time></trkpt>
<trkpt lat="50.405178" lon="3.902708"><time>2026-05-02T17:51:34Z</time></trkpt>
<trkpt lat="50.405126" lon="3.904367"><time>2026-05-02T18:01:34Z</time></trkpt>
<trkpt lat="50.405147" lon="3.904446"><time>2026-05-02T18:11:34Z</time></trkpt>
<trkpt lat="50.405187" lon="3.904349"><time>2026-05-02T18:21:34Z</time></trkpt>
<trkpt lat="50.405304" lon="3.903402"><time>2026-05-02T18:31:34Z</time></trkpt>
<trkpt lat="50.405639" lon="3.902454"><time>2026-05-02T18:41:34Z</time></trkpt>
<trkpt lat="50.405828" lon="3.902479"><time>2026-05-02T18:51:34Z</time></trkpt>
<trkpt lat="50.405876" lon="3.902819"><time>2026-05-02T19:01:34Z</time></trkpt>
<trkpt lat="50.405316" lon="3.904206"><time>2026-05-02T19:11:34Z</time></trkpt>
<trkpt lat="50.405225" lon="3.904553"><time>2026-05-02T19:21:34Z</time></trkpt>
<trkpt lat="50.405288" lon="3.904589"><time>2026-05-02T19:31:34Z</time></trkpt>
<trkpt lat="50.405472" lon="3.904385"><time>2026-05-02T19:41:34Z</time></trkpt>
<trkpt lat="50.405675" lon="3.903895"><time>2026-05-02T19:51:34Z</time></trkpt>
<trkpt lat="50.406035" lon="3.903327"><time>2026-05-02T20:01:34Z</time></trkpt>
<trkpt lat="50.406081" lon="3.903334"><time>2026-05-02T20:11:34Z</time></trkpt>
<trkpt lat="50.405892" lon="3.903799"><time>2026-05-02T20:21:34Z</time></trkpt>
<trkpt lat="50.405898" lon="3.903870"><time>2026-05-02T20:31:34Z</time></trkpt>
</trkseg>
</trk>
<trk>
<name>hfmfmi11</name>
<cmt>v</cmt>
<desc>Frameries Sentier n°i11 </desc>
<link href="https://chemins.be/frameries/sentier/i11"/><trkseg>
<trkpt lat="50.416067" lon="3.920801"><time>2026-05-02T17:41:34Z</time></trkpt>
<trkpt lat="50.416287" lon="3.921110"><time>2026-05-02T17:51:34Z</time></trkpt>
<trkpt lat="50.416196" lon="3.921374"><time>2026-05-02T18:01:34Z</time></trkpt>
<trkpt lat="50.415610" lon="3.922383"><time>2026-05-02T18:11:34Z</time></trkpt>
<trkpt lat="50.415257" lon="3.922841"><time>2026-05-02T18:21:34Z</time></trkpt>
<trkpt lat="50.413988" lon="3.925107"><time>2026-05-02T18:31:34Z</time></trkpt>
<trkpt lat="50.413888" lon="3.925429"><time>2026-05-02T18:41:34Z</time></trkpt>
<trkpt lat="50.413747" lon="3.925622"><time>2026-05-02T18:51:34Z</time></trkpt>
<trkpt lat="50.413628" lon="3.925522"><time>2026-05-02T19:01:34Z</time></trkpt>
</trkseg>
</trk>
<trk>
<name>hfmfmi2</name>
<cmt>v</cmt>
<desc>Frameries Chemin n°i2 Chemin de Binche</desc>
<link href="https://chemins.be/frameries/chemin/i2"/><trkseg>
<trkpt lat="50.415821" lon="3.921586"><time>2026-05-02T17:41:34Z</time></trkpt>
<trkpt lat="50.415303" lon="3.922478"><time>2026-05-02T17:51:34Z</time></trkpt>
<trkpt lat="50.413543" lon="3.925590"><time>2026-05-02T18:01:34Z</time></trkpt>
<trkpt lat="50.413481" lon="3.925689"><time>2026-05-02T18:11:34Z</time></trkpt>
<trkpt lat="50.413364" lon="3.925816"><time>2026-05-02T18:21:34Z</time></trkpt>
<trkpt lat="50.413311" lon="3.925845"><time>2026-05-02T18:31:34Z</time></trkpt>
<trkpt lat="50.412934" lon="3.925846"><time>2026-05-02T18:41:34Z</time></trkpt>
</trkseg>
</trk>
<trk>
<name>hfmfmi3</name>
<cmt>v</cmt>
<desc>Frameries Chemin n°i3 Rue Joseph Wauters</desc>
<link href="https://chemins.be/frameries/chemin/i3"/><trkseg>
<trkpt lat="50.401395" lon="3.901078"><time>2026-05-02T17:41:34Z</time></trkpt>
<trkpt lat="50.401286" lon="3.902559"><time>2026-05-02T17:51:34Z</time></trkpt>
</trkseg>
</trk>
<trk>
<name>hfmfmi4</name>
<cmt>v</cmt>
<desc>Frameries Chemin n°i4 </desc>
<link href="https://chemins.be/frameries/chemin/i4"/><trkseg>
<trkpt lat="50.397514" lon="3.907415"><time>2026-05-02T17:41:34Z</time></trkpt>
<trkpt lat="50.396889" lon="3.907553"><time>2026-05-02T17:51:34Z</time></trkpt>
<trkpt lat="50.395959" lon="3.908068"><time>2026-05-02T18:01:34Z</time></trkpt>
<trkpt lat="50.395684" lon="3.908615"><time>2026-05-02T18:11:34Z</time></trkpt>
</trkseg>
</trk>
<trk>
<name>hfmfmi6</name>
<cmt>v</cmt>
<desc>Frameries Chemin n°i6 </desc>
<link href="https://chemins.be/frameries/chemin/i6"/><trkseg>
<trkpt lat="50.414767" lon="3.900940"><time>2026-05-02T17:41:34Z</time></trkpt>
<trkpt lat="50.416545" lon="3.899181"><time>2026-05-02T17:51:34Z</time></trkpt>
<trkpt lat="50.416558" lon="3.898902"><time>2026-05-02T18:01:34Z</time></trkpt>
</trkseg>
</trk>
<trk>
<name>hfmfmi7</name>
<cmt>v</cmt>
<desc>Frameries Sentier n°i7 </desc>
<link href="https://chemins.be/frameries/sentier/i7"/><trkseg>
<trkpt lat="50.415150" lon="3.900286"><time>2026-05-02T17:41:34Z</time></trkpt>
<trkpt lat="50.415273" lon="3.900447"><time>2026-05-02T17:51:34Z</time></trkpt>
</trkseg>
</trk>
<trk>
<name>hfmfmi8</name>
<cmt>v</cmt>
<desc>Frameries Sentier n°i8 </desc>
<link href="https://chemins.be/frameries/sentier/i8"/><trkseg>
<trkpt lat="50.413885" lon="3.899792"><time>2026-05-02T17:41:34Z</time></trkpt>
<trkpt lat="50.414083" lon="3.899310"><time>2026-05-02T17:51:34Z</time></trkpt>
</trkseg>
</trk>
<trk>
<name>hfmfmi9</name>
<cmt>v</cmt>
<desc>Frameries Sentier n°i9 </desc>
<link href="https://chemins.be/frameries/sentier/i9"/><trkseg>
<trkpt lat="50.416661" lon="3.912286"><time>2026-05-02T17:41:34Z</time></trkpt>
<trkpt lat="50.417003" lon="3.911535"><time>2026-05-02T17:51:34Z</time></trkpt>
</trkseg></trk>
<trk>
<name>hfmfmi9</name>
<cmt>r</cmt>
<desc>Frameries Sentier n°i9 </desc>
<link href="https://chemins.be/frameries/sentier/i9"/><trkseg>
<trkpt lat="50.417003" lon="3.911535"><time>2026-05-02T17:51:34Z</time></trkpt>
<trkpt lat="50.417888" lon="3.912531"><time>2026-05-02T18:01:34Z</time></trkpt>
<trkpt lat="50.418779" lon="3.913480"><time>2026-05-02T18:11:34Z</time></trkpt>
</trkseg>
</trk>
<trk>
<name>hfmfmL153</name>
<cmt>q</cmt>
<desc>Frameries Chemin n°L153 </desc>
<link href="https://chemins.be/frameries/chemin/L153"/><trkseg>
<trkpt lat="50.410965" lon="3.904645"><time>2026-05-02T17:41:34Z</time></trkpt>
<trkpt lat="50.412965" lon="3.902565"><time>2026-05-02T17:51:34Z</time></trkpt>
<trkpt lat="50.414755" lon="3.900814"><time>2026-05-02T18:01:34Z</time></trkpt>
<trkpt lat="50.416573" lon="3.898932"><time>2026-05-02T18:11:34Z</time></trkpt>
</trkseg></trk>
<trk>
<name>hfmfmL153</name>
<cmt>d</cmt>
<desc>Frameries Chemin n°L153 </desc>
<link href="https://chemins.be/frameries/chemin/L153"/><trkseg>
<trkpt lat="50.416573" lon="3.898932"><time>2026-05-02T18:11:34Z</time></trkpt>
<trkpt lat="50.419605" lon="3.895744"><time>2026-05-02T18:21:34Z</time></trkpt>
</trkseg>
</trk>
<trk>
<name>hfmfmL98C</name>
<cmt>s</cmt>
<desc>Frameries Chemin n°L98C Rue des Fours à Chaux / RAVeL L98 C</desc>
<link href="https://chemins.be/frameries/chemin/L98C"/><trkseg>
<trkpt lat="50.411685" lon="3.924885"><time>2026-05-02T17:41:34Z</time></trkpt>
<trkpt lat="50.412580" lon="3.922919"><time>2026-05-02T17:51:34Z</time></trkpt>
<trkpt lat="50.412451" lon="3.919404"><time>2026-05-02T18:01:34Z</time></trkpt>
</trkseg></trk>
<trk>
<name>hfmfmL98C</name>
<cmt>q</cmt>
<desc>Frameries Chemin n°L98C Rue des Fours à Chaux / RAVeL L98 C</desc>
<link href="https://chemins.be/frameries/chemin/L98C"/><trkseg>
<trkpt lat="50.412451" lon="3.919404"><time>2026-05-02T18:01:34Z</time></trkpt>
<trkpt lat="50.410975" lon="3.918175"><time>2026-05-02T18:11:34Z</time></trkpt>
<trkpt lat="50.410445" lon="3.918125"><time>2026-05-02T18:21:34Z</time></trkpt>
<trkpt lat="50.409125" lon="3.918955"><time>2026-05-02T18:31:34Z</time></trkpt>
<trkpt lat="50.408665" lon="3.919055"><time>2026-05-02T18:41:34Z</time></trkpt>
<trkpt lat="50.406045" lon="3.917095"><time>2026-05-02T18:51:34Z</time></trkpt>
</trkseg></trk>
<trk>
<name>hfmfmL98C</name>
<cmt>v</cmt>
<desc>Frameries Chemin n°L98C Rue des Fours à Chaux / RAVeL L98 C</desc>
<link href="https://chemins.be/frameries/chemin/L98C"/><trkseg>
<trkpt lat="50.406045" lon="3.917095"><time>2026-05-02T18:51:34Z</time></trkpt>
<trkpt lat="50.405495" lon="3.915555"><time>2026-05-02T19:01:34Z</time></trkpt>
<trkpt lat="50.406030" lon="3.908445"><time>2026-05-02T19:11:34Z</time></trkpt>
<trkpt lat="50.406531" lon="3.906743"><time>2026-05-02T19:21:34Z</time></trkpt>
<trkpt lat="50.407220" lon="3.906035"><time>2026-05-02T19:31:34Z</time></trkpt>
<trkpt lat="50.407666" lon="3.905806"><time>2026-05-02T19:41:34Z</time></trkpt>
<trkpt lat="50.408655" lon="3.905435"><time>2026-05-02T19:51:34Z</time></trkpt>
<trkpt lat="50.410261" lon="3.905122"><time>2026-05-02T20:01:34Z</time></trkpt>
<trkpt lat="50.410995" lon="3.904865"><time>2026-05-02T20:11:34Z</time></trkpt>
<trkpt lat="50.417105" lon="3.902054"><time>2026-05-02T20:21:34Z</time></trkpt>
<trkpt lat="50.422435" lon="3.898014"><time>2026-05-02T20:31:34Z</time></trkpt>
</trkseg>
</trk>
<trk>
<name>hfmfmLi10</name>
<cmt>s</cmt>
<desc>Frameries Chemin n°Li10 </desc>
<link href="https://chemins.be/frameries/chemin/Li10"/><trkseg>
<trkpt lat="50.409482" lon="3.883595"><time>2026-05-02T17:41:34Z</time></trkpt>
<trkpt lat="50.409117" lon="3.886138"><time>2026-05-02T17:51:34Z</time></trkpt>
<trkpt lat="50.407749" lon="3.887635"><time>2026-05-02T18:01:34Z</time></trkpt>
<trkpt lat="50.407197" lon="3.888777"><time>2026-05-02T18:11:34Z</time></trkpt>
<trkpt lat="50.405942" lon="3.892665"><time>2026-05-02T18:21:34Z</time></trkpt>
</trkseg></trk>
<trk>
<name>hfmfmLi10</name>
<cmt>r</cmt>
<desc>Frameries Chemin n°Li10 </desc>
<link href="https://chemins.be/frameries/chemin/Li10"/><trkseg>
<trkpt lat="50.405942" lon="3.892665"><time>2026-05-02T18:21:34Z</time></trkpt>
<trkpt lat="50.404791" lon="3.895979"><time>2026-05-02T18:31:34Z</time></trkpt>
</trkseg></trk>
<trk>
<name>hfmfmLi10</name>
<cmt>q</cmt>
<desc>Frameries Chemin n°Li10 </desc>
<link href="https://chemins.be/frameries/chemin/Li10"/><trkseg>
<trkpt lat="50.404791" lon="3.895979"><time>2026-05-02T18:31:34Z</time></trkpt>
<trkpt lat="50.403971" lon="3.897797"><time>2026-05-02T18:41:34Z</time></trkpt>
</trkseg></trk>
<trk>
<name>hfmfmLi10</name>
<cmt>s</cmt>
<desc>Frameries Chemin n°Li10 </desc>
<link href="https://chemins.be/frameries/chemin/Li10"/><trkseg>
<trkpt lat="50.403971" lon="3.897797"><time>2026-05-02T18:41:34Z</time></trkpt>
<trkpt lat="50.403596" lon="3.898507"><time>2026-05-02T18:51:34Z</time></trkpt>
</trkseg></trk>
<trk>
<name>hfmfmLi10</name>
<cmt>v</cmt>
<desc>Frameries Chemin n°Li10 </desc>
<link href="https://chemins.be/frameries/chemin/Li10"/><trkseg>
<trkpt lat="50.403596" lon="3.898507"><time>2026-05-02T18:51:34Z</time></trkpt>
<trkpt lat="50.401330" lon="3.900916"><time>2026-05-02T19:01:34Z</time></trkpt>
<trkpt lat="50.400786" lon="3.902122"><time>2026-05-02T19:11:34Z</time></trkpt>
<trkpt lat="50.399673" lon="3.903652"><time>2026-05-02T19:21:34Z</time></trkpt>
<trkpt lat="50.397036" lon="3.905685"><time>2026-05-02T19:31:34Z</time></trkpt>
<trkpt lat="50.396719" lon="3.906157"><time>2026-05-02T19:41:34Z</time></trkpt>
<trkpt lat="50.396434" lon="3.906603"><time>2026-05-02T19:51:34Z</time></trkpt>
<trkpt lat="50.396144" lon="3.907058"><time>2026-05-02T20:01:34Z</time></trkpt>
<trkpt lat="50.395774" lon="3.907527"><time>2026-05-02T20:11:34Z</time></trkpt>
</trkseg></trk>
<trk>
<name>hfmfmLi10</name>
<cmt>q</cmt>
<desc>Frameries Chemin n°Li10 </desc>
<link href="https://chemins.be/frameries/chemin/Li10"/><trkseg>
<trkpt lat="50.395774" lon="3.907527"><time>2026-05-02T20:11:34Z</time></trkpt>
<trkpt lat="50.394378" lon="3.908156"><time>2026-05-02T20:21:34Z</time></trkpt>
</trkseg>
</trk>
</gpx>